Airfield :
LOGIN :

Register | Disclaimer

   EN    FR    IT 

 










Legend :    VFR   Marginal VFR   IFR   Intensive IFR   Very Intensive IFR
Visi :
Ceiling :
>= 8 km
>= 3000ft
5 to 8 km
1000 to 3000 ft
1500m to 5 km
500 to 1000 ft
800 to 1500m
200 to 500 ft
< 800m
< 200 ft
Symbols :   Thunderstorms  Fog  Heavy snow  Heavy precipitations  Wind > 20 kt
SIGMETs :     Misc.  Thunderstorms  Icing  Turbulence  Mountain Waves  Volcanic Ashes






- Airport Elevation : 821 ft
- IATA code : LYS


LFLL - Lyon St Exupéry / Satolas

CURRENT METAR :
  • 201230Z 16019G29KT 9999 FEW050 SCT130 BKN260 13/04 Q1008 TEMPO 18030G45KT

EXPIRED METARs :
  • 201200Z 16019G32KT 9999 FEW046 SCT120 BKN260 12/04 Q1008 TEMPO 18030G45KT
  • 201130Z 16018G28KT 130V200 9999 FEW046 SCT120 BKN260 12/04 Q1010 TEMPO 18030G45KT
  • 201100Z 17020G31KT 140V220 9999 FEW046 SCT120 BKN260 12/04 Q1010 TEMPO 18030G45KT
  • 201030Z 17019G33KT 130V190 9999 FEW040 SCT120 BKN260 11/04 Q1010 TEMPO 18020G35KT
  • 201000Z 16014G25KT 120V190 CAVOK 11/04 Q1011 TEMPO 18020G35KT

TAF TAF LFLL
Valid from the 20 at 12:00 until the 21 at 18:00 UTC


201100Z 2012/2118 18020G35KT 9999 SCT035
TEMPO 2012/2020 18030G45KT
PROB40
TEMPO 2012/2019 18035G55KT



MET'MAP, your aeronautical weather chart ! - Copyright ORBIFLY December 2007 - Disclaimer

ORBIFLY MET'MAP TEAM :

Programming & Development : Alexandra Zaïnal
Concept & original design : Baudouin d'Aumeries
Assistance for programming : Marc-Olivier Méhu
Technical & hardware support : Manuel Goepfert

Contact : metmap@orbifly.com




SOURCES & CREDITS :

   NOAA